Sara K — WBP4759 — position and weather

sailwx.info

Track history (hours):
 
Tides and Currents Weather Stations Pressure Air Temp Water Temp Dewpoint Dewpoint Depression Visibility Wind Speed Wind Dir Waves Ship Positions

Sara K

Owner: The Tug Sara K, L.L.C., SUGAR LAND, TX. More information available from US FCC via Universal Licensing System and Coast Guard Vessel Documentation Center.

Last reported at 2018-May-29 13:38 UTC. Time now 2018-Jun-22 03:02 UTC.
Position N 29°47' W 095°04'.
Warning: this ship's position is 23 days out of date.

Length 14 m; draft 2.5 m.

Type: Towing. MMSI: 366986670.

Date/timePositionNaut miles runAvg speedWind from/ knotsBaromVisibWave heightAir tempDewpointWater temp
2018-May-29 13:38N 29°47' W 095°04'1 5.2
2018-May-29 13:29N 29°48' W 095°03'0 1.0
2018-May-29 13:00N 29°48' W 095°04'1 1.2
2018-May-29 12:30N 29°48' W 095°04'1 0.9
2018-May-29 11:45N 29°48' W 095°04'1 1.7
2018-May-29 11:18N 29°47' W 095°04'1 1.2
2018-May-29 10:46N 29°48' W 095°04'0 0.3
2018-May-29 10:29N 29°48' W 095°04'0 0.3
2018-May-29 10:00N 29°48' W 095°04'0 0.6
2018-May-29 09:30N 29°48' W 095°04'0 0.5
2018-May-29 08:53N 29°48' W 095°04'1 2.1
2018-May-29 08:26N 29°47' W 095°04'0 0.3
2018-May-29 07:28N 29°47' W 095°04'1 1.2
2018-May-29 06:57N 29°48' W 095°04'  
2018-May-24 00:56N 29°44' W 095°08'5 1.7
2018-May-23 21:40N 29°48' W 095°04'0 0.8
2018-May-23 21:20N 29°48' W 095°04'0 0.5
2018-May-23 20:55N 29°48' W 095°04'0 0.7
2018-May-23 20:30N 29°48' W 095°04'4 2.6
2018-May-23 18:49N 29°44' W 095°07'1 4.1
2018-May-23 18:30N 29°44' W 095°08'5 3.6
2018-May-23 17:11N 29°44' W 095°13'1 4.1
2018-May-23 17:00N 29°43' W 095°14'1 0.3
2018-May-23 14:15N 29°43' W 095°15'1 4.5
2018-May-23 13:59N 29°44' W 095°14'3 4.5
2018-May-23 13:15N 29°45' W 095°10'1 5.4
2018-May-23 13:00N 29°44' W 095°09'  
2018-May-21 03:14N 29°47' W 095°04'  
Track history (hours):
 
Tides and Currents Weather Stations Pressure Air Temp Water Temp Dewpoint Dewpoint Depression Visibility Wind Speed Wind Dir Waves Ship Positions

Sara K

Owner: The Tug Sara K, L.L.C., SUGAR LAND, TX. More information available from US FCC via Universal Licensing System and Coast Guard Vessel Documentation Center.

Last reported at 2018-May-29 13:38 UTC. Time now 2018-Jun-22 03:02 UTC.
Position N 29°47' W 095°04'.
Warning: this ship's position is 23 days out of date.

Length 14 m; draft 2.5 m.

Type: Towing. MMSI: 366986670.

Date/timePositionNaut miles runAvg speedWind from/ knotsBaromVisibWave heightAir tempDewpointWater temp
2018-May-29 13:38N 29°47' W 095°04'1 5.2
2018-May-29 13:29N 29°48' W 095°03'0 1.0
2018-May-29 13:00N 29°48' W 095°04'1 1.2
2018-May-29 12:30N 29°48' W 095°04'1 0.9
2018-May-29 11:45N 29°48' W 095°04'1 1.7
2018-May-29 11:18N 29°47' W 095°04'1 1.2
2018-May-29 10:46N 29°48' W 095°04'0 0.3
2018-May-29 10:29N 29°48' W 095°04'0 0.3
2018-May-29 10:00N 29°48' W 095°04'0 0.6
2018-May-29 09:30N 29°48' W 095°04'0 0.5
2018-May-29 08:53N 29°48' W 095°04'1 2.1
2018-May-29 08:26N 29°47' W 095°04'0 0.3
2018-May-29 07:28N 29°47' W 095°04'1 1.2
2018-May-29 06:57N 29°48' W 095°04'  
2018-May-24 00:56N 29°44' W 095°08'5 1.7
2018-May-23 21:40N 29°48' W 095°04'0 0.8
2018-May-23 21:20N 29°48' W 095°04'0 0.5
2018-May-23 20:55N 29°48' W 095°04'0 0.7
2018-May-23 20:30N 29°48' W 095°04'4 2.6
2018-May-23 18:49N 29°44' W 095°07'1 4.1
2018-May-23 18:30N 29°44' W 095°08'5 3.6
2018-May-23 17:11N 29°44' W 095°13'1 4.1
2018-May-23 17:00N 29°43' W 095°14'1 0.3
2018-May-23 14:15N 29°43' W 095°15'1 4.5
2018-May-23 13:59N 29°44' W 095°14'3 4.5
2018-May-23 13:15N 29°45' W 095°10'1 5.4
2018-May-23 13:00N 29°44' W 095°09'  
2018-May-21 03:14N 29°47' W 095°04'  

Dump ship's entire track history